Etusivu
METAR-TAF:

METAR-TAF

Lentoasemat :

Unalaska, Alaska, Yhdysvallat

Leveyspiiri: 53-54N, Pituuspiiri: 166-32W, korkeus merenpinnasta: 7 m

Tämänhetkinen sää

Tämä raportti tehtiin 10 minuuttia sitten, kello 06.56 UTC
Tuuli 14 kn etelästä/lounaasta
Lämpötila 7°C
Kosteus 70%
Ilmanpaine 1005 hPa
Näkyvyys: 16.1 km
Hajanaisia pilviä 9000 ft:n korkeudessa

METAR: PADU 210656Z AUTO 21014KT 10SM SCT090 07/02 A2968 RMK AO2 SLP054 T00720022

Aika: 23:06 (07:06 UTC)

Sääennuste

Tämä raportti tehtiin 1 tunti ja 30 minuuttia sitten, kello 05.36 UTC
Ennuste voimassa 21. päivästä klo 06 UTC - 22. päivään klo 06 UTC
Tuuli 11 kn etelästä/lounaasta
Näkyvyys: 10 km
Muutamia pilviä 3000 ft:n korkeudessa
Hajonneita pilviä 15000 ft:n korkeudessa
From 21. päivästä klo 1000 UTC
Tuuli 15 kn lounaasta puuskistuen 25 kn:hen
Näkyvyys: 10 km
Pilvistä 3000 ft:n korkeudessa
sadekuuroja näköpiirissä,

TAF: PADU 210536Z 2106/2206 20011KT P6SM FEW030 BKN150 FM211000 23015G25KT P6SM VCSH OVC030

Säähavainnot ja -ennusteet yli 4000 lentoasemalta (METAR- ja TAF-raportit).

Käytössä olevat sääasemat on merkitty karttaan keltaisilla ja punaisilla pisteillä.

Aseta hiiri pisteen päälle nähdäksesi sääaseman nimen.

Klikkaa sitten nähdäksesi säähavainnot ja -ennusteet.

Kartan vaihtaminen: klikkaa mustalla rastilla varustettuja vihreitä pisteitä, niin voit zoomata sisään; viivalla varustettua vihreää pistettä, niin voit zoomata ulos tai vihreitä nuolia, niin pääset viereisille kartoille.


METAR-TAF: